Terminal Aerodrome Forecast
Issued by NWS Newport/Morehead City, NC

Home | Current Version | Previous Version | Text Only | Print | Product List | Glossary On
Versions: 1 2 3 4 5 6 7 8 9 10 11 12 13 14 15 16 17 18 19 20 21 22 23 24
000
FTUS42 KMHX 182300
TAFEWN
TAF
KEWN 182326Z 1900/1924 06004KT P6SM FEW080
     FM191400 08011G17KT P6SM SCT050=

USA.gov is the U.S. government's official web portal to all federal, state and local government web resources and services.